Time;durP1;ratioP1;P1;durP2;ratioP2;P2;SDS_P1;SDS_P2;PMS_P1;PMS_P2;Temp;Humidity;BMP_temperature;BMP_pressure;BME280_temperature;BME280_humidity;BME280_pressure;Samples;Min_cycle;Max_cycle;Signal;HPM_P1;HPM_P2
2022/07/08 00:02:22;;;;;;;13.48;3.08;;;15.50;99.90;;;;;;5053470;28;20033;-72
2022/07/08 00:04:48;;;;;;;11.52;2.28;;;16.40;99.90;;;;;;5054739;28;20041;-74
2022/07/08 00:07:13;;;;;;;8.95;1.83;;;15.40;99.90;;;;;;5053511;28;20037;-72
2022/07/08 00:09:39;;;;;;;9.40;2.05;;;15.40;99.90;;;;;;5053123;28;20471;-71
2022/07/08 00:12:05;;;;;;;15.45;2.03;;;15.30;99.90;;;;;;5055095;28;20036;-72
2022/07/08 00:14:31;;;;;;;8.07;1.67;;;15.30;99.90;;;;;;5054852;28;20037;-72
2022/07/08 00:16:56;;;;;;;10.50;2.05;;;15.20;99.90;;;;;;5053314;28;20048;-72
2022/07/08 00:19:22;;;;;;;13.38;2.58;;;15.20;99.90;;;;;;5036669;28;20091;-72
2022/07/08 00:21:50;;;;;;;10.30;1.90;;;15.30;99.90;;;;;;5054535;28;20128;-72
2022/07/08 00:24:16;;;;;;;11.73;2.00;;;15.10;99.90;;;;;;5053420;28;20116;-72
2022/07/08 00:26:43;;;;;;;11.63;2.35;;;15.20;99.90;;;;;;5036647;28;20033;-72
2022/07/08 00:29:09;;;;;;;8.60;1.90;;;15.10;99.90;;;;;;5053605;28;20048;-72
2022/07/08 00:31:35;;;;;;;12.45;2.00;;;15.20;99.90;;;;;;5056230;28;20037;-72
2022/07/08 00:34:00;;;;;;;8.13;2.47;;;14.90;99.90;;;;;;5037119;28;20045;-72
2022/07/08 00:36:26;;;;;;;8.63;2.50;;;14.90;99.90;;;;;;5036250;28;20482;-73
2022/07/08 00:38:52;;;;;;;12.82;2.80;;;15.10;99.90;;;;;;5052681;28;20124;-72
2022/07/08 00:41:18;;;;;;;7.03;1.92;;;15.00;99.90;;;;;;5052541;28;20052;-72
2022/07/08 00:43:46;;;;;;;8.90;1.38;;;15.00;99.90;;;;;;5036093;28;20415;-71
2022/07/08 00:46:13;;;;;;;10.60;2.10;;;15.00;99.90;;;;;;5035808;28;20037;-72
2022/07/08 00:48:39;;;;;;;10.65;2.25;;;15.00;99.90;;;;;;5036317;28;20175;-71
2022/07/08 00:51:11;;;;;;;6.55;2.33;;;15.00;99.90;;;;;;5052192;28;20044;-73
2022/07/08 00:53:41;;;;;;;17.10;5.07;;;14.90;99.90;;;;;;5052852;28;20116;-72
2022/07/08 00:56:09;;;;;;;11.35;2.60;;;14.90;99.90;;;;;;5052711;28;20037;-71
2022/07/08 00:58:35;;;;;;;10.23;2.75;;;14.70;99.90;;;;;;5052559;28;20041;-71
2022/07/08 01:01:01;;;;;;;12.43;1.85;;;14.70;99.90;;;;;;5052399;28;20059;-72
2022/07/08 01:03:27;;;;;;;12.60;2.38;;;14.70;99.90;;;;;;5052340;28;20041;-72
2022/07/08 01:05:53;;;;;;;10.63;1.55;;;14.70;99.90;;;;;;5053774;28;20052;-71
2022/07/08 01:08:19;;;;;;;12.13;2.08;;;14.50;99.90;;;;;;5052458;28;20487;-71
2022/07/08 01:10:45;;;;;;;12.60;2.05;;;14.50;99.90;;;;;;5053028;28;20487;-72
2022/07/08 01:13:10;;;;;;;8.60;1.88;;;14.70;99.90;;;;;;5052189;28;20033;-72
2022/07/08 01:15:36;;;;;;;11.15;1.88;;;14.70;99.90;;;;;;5052376;28;20041;-72
2022/07/08 01:18:03;;;;;;;10.55;1.85;;;14.60;99.90;;;;;;5052115;28;20037;-71
2022/07/08 01:20:33;;;;;;;8.32;1.60;;;14.70;99.90;;;;;;5053057;28;20131;-71
2022/07/08 01:22:59;;;;;;;11.18;1.88;;;14.60;99.90;;;;;;5053635;28;20041;-72
2022/07/08 01:25:25;;;;;;;8.02;1.65;;;14.50;99.90;;;;;;5051972;28;20124;-72
2022/07/08 01:27:50;;;;;;;11.63;1.70;;;14.40;99.90;;;;;;5052240;28;20036;-72
2022/07/08 01:30:16;;;;;;;13.15;1.80;;;14.40;99.90;;;;;;5051494;28;20029;-72
2022/07/08 01:32:42;;;;;;;8.30;1.73;;;14.50;99.90;;;;;;5052244;28;20029;-72
2022/07/08 01:35:09;;;;;;;9.95;1.80;;;14.40;99.90;;;;;;5035826;28;20041;-72
2022/07/08 01:37:35;;;;;;;7.65;2.20;;;14.40;99.90;;;;;;5035260;28;20052;-71
2022/07/08 01:40:00;;;;;;;10.27;2.20;;;14.40;99.90;;;;;;5051468;28;20048;-72
2022/07/08 01:42:26;;;;;;;8.05;2.08;;;14.30;99.90;;;;;;5051742;28;20041;-71
2022/07/08 01:44:52;;;;;;;13.82;2.33;;;14.30;99.90;;;;;;5051549;28;20411;-72
2022/07/08 01:47:19;;;;;;;10.07;2.10;;;14.50;99.90;;;;;;5053193;28;20167;-72
2022/07/08 01:49:45;;;;;;;12.82;1.95;;;14.40;99.90;;;;;;5052638;28;20041;-72
2022/07/08 01:52:10;;;;;;;5.65;1.63;;;14.20;99.90;;;;;;5034698;28;20095;-72
2022/07/08 01:54:36;;;;;;;9.13;1.55;;;14.20;99.90;;;;;;5051383;28;20037;-71
2022/07/08 01:57:13;;;;;;;10.48;2.10;;;14.30;99.90;;;;;;5052011;28;20053;-71
2022/07/08 01:59:40;;;;;;;13.40;1.65;;;14.10;99.90;;;;;;5050747;28;20175;-71
2022/07/08 02:02:05;;;;;;;11.05;1.92;;;14.00;99.90;;;;;;5051408;28;20123;-72
2022/07/08 02:04:31;;;;;;;6.88;1.40;;;14.00;99.90;;;;;;5052496;28;20123;-71
2022/07/08 02:06:56;;;;;;;7.25;1.58;;;14.10;99.90;;;;;;5034608;28;20122;-70
2022/07/08 02:09:22;;;;;;;8.32;2.53;;;14.00;99.90;;;;;;5051300;28;20044;-71
2022/07/08 02:14:32;;;;;;;8.75;1.55;;;13.90;99.90;;;;;;5052273;28;20114;-72
2022/07/08 02:16:58;;;;;;;15.88;2.40;;;14.00;99.90;;;;;;5053507;28;20498;-71
2022/07/08 02:19:24;;;;;;;10.60;2.15;;;13.80;99.90;;;;;;5053000;28;20040;-71
2022/07/08 02:21:50;;;;;;;14.73;2.25;;;13.70;99.90;;;;;;5053063;28;20041;-72
2022/07/08 02:24:15;;;;;;;11.00;1.80;;;13.80;99.90;;;;;;5034454;28;20134;-71
2022/07/08 02:26:41;;;;;;;13.02;2.03;;;13.90;99.90;;;;;;5052484;28;20037;-72
2022/07/08 02:29:07;;;;;;;7.95;1.60;;;;;;;;;;5050744;28;20510;-70
2022/07/08 02:31:33;;;;;;;6.88;1.70;;;13.70;99.90;;;;;;5050725;28;20067;-72
2022/07/08 02:33:58;;;;;;;9.07;2.10;;;13.80;99.90;;;;;;5050761;28;20037;-75
2022/07/08 02:36:24;;;;;;;9.75;2.05;;;13.70;99.90;;;;;;5051137;28;20089;-72
2022/07/08 02:38:49;;;;;;;8.68;1.73;;;13.80;99.90;;;;;;5050646;28;20049;-71
2022/07/08 02:41:15;;;;;;;8.57;1.90;;;13.80;99.90;;;;;;5050515;28;20041;-72
2022/07/08 02:43:40;;;;;;;8.07;1.80;;;13.80;99.90;;;;;;5050822;28;20079;-71
2022/07/08 02:46:06;;;;;;;8.65;1.38;;;13.80;99.90;;;;;;5050568;28;20079;-72
2022/07/08 02:48:31;;;;;;;7.22;1.88;;;13.70;99.90;;;;;;5050522;28;20036;-71
2022/07/08 02:50:57;;;;;;;6.63;1.98;;;13.80;99.90;;;;;;5033488;28;20040;-73
2022/07/08 02:53:23;;;;;;;6.20;1.67;;;13.60;99.90;;;;;;5050627;28;20136;-72
2022/07/08 02:55:49;;;;;;;7.50;1.63;;;13.60;99.90;;;;;;5050796;28;20040;-71
2022/07/08 02:58:14;;;;;;;8.48;1.67;;;13.70;99.90;;;;;;5051947;28;20109;-71
2022/07/08 03:00:40;;;;;;;10.13;1.88;;;;;;;;;;5050148;28;20067;-72
2022/07/08 03:03:06;;;;;;;10.38;2.10;;;13.60;99.90;;;;;;5050350;28;20160;-72
2022/07/08 03:05:31;;;;;;;5.05;1.50;;;13.50;99.90;;;;;;5050263;28;20053;-71
2022/07/08 03:07:57;;;;;;;10.50;1.77;;;13.50;99.90;;;;;;5050718;28;20402;-71
2022/07/08 03:10:23;;;;;;;7.28;1.63;;;;;;;;;;5055585;28;20033;-72
2022/07/08 03:12:49;;;;;;;9.80;1.83;;;13.60;99.90;;;;;;5054755;28;20461;-72
2022/07/08 03:15:14;;;;;;;8.40;1.55;;;13.40;99.90;;;;;;5037954;28;20048;-72
2022/07/08 03:17:40;;;;;;;7.72;1.75;;;13.50;99.90;;;;;;5054367;28;20047;-71
2022/07/08 03:20:06;;;;;;;8.35;1.77;;;13.50;99.90;;;;;;5055260;28;20045;-71
2022/07/08 03:22:33;;;;;;;7.18;2.42;;;13.20;99.90;;;;;;5054308;28;20037;-72
2022/07/08 03:24:58;;;;;;;9.00;2.15;;;13.30;99.90;;;;;;5054344;28;20049;-71
2022/07/08 03:27:24;;;;;;;7.70;1.65;;;13.20;99.90;;;;;;5054542;28;20040;-71
2022/07/08 03:29:49;;;;;;;6.28;1.50;;;13.30;99.90;;;;;;5053832;28;20038;-72
2022/07/08 03:32:15;;;;;;;11.60;1.83;;;13.40;99.90;;;;;;5054189;28;20351;-72
2022/07/08 03:34:40;;;;;;;9.13;1.90;;;13.50;99.90;;;;;;5037761;28;20505;-72
2022/07/08 03:37:06;;;;;;;8.10;1.73;;;13.50;99.90;;;;;;5037843;28;20128;-71
2022/07/08 03:39:31;;;;;;;7.43;2.13;;;13.50;99.90;;;;;;5053850;28;20041;-72
2022/07/08 03:41:57;;;;;;;9.50;1.77;;;13.40;99.90;;;;;;5055165;28;20491;-72
2022/07/08 03:44:23;;;;;;;10.45;2.90;;;13.40;99.90;;;;;;5055073;28;20037;-72
2022/07/08 03:46:48;;;;;;;6.88;2.47;;;13.40;99.90;;;;;;5053759;28;20041;-72
2022/07/08 03:49:14;;;;;;;10.05;1.88;;;13.50;99.90;;;;;;5036823;28;20052;-69
2022/07/08 03:51:39;;;;;;;6.28;1.70;;;13.40;99.90;;;;;;5055054;28;20059;-71
2022/07/08 03:54:05;;;;;;;11.05;2.28;;;;;;;;;;5055055;28;20041;-72
2022/07/08 03:56:31;;;;;;;6.20;1.70;;;;;;;;;;5053923;28;20163;-73
2022/07/08 03:58:57;;;;;;;6.95;1.80;;;13.60;99.90;;;;;;5053269;28;20107;-73
2022/07/08 04:01:22;;;;;;;10.45;2.20;;;13.70;99.90;;;;;;5053158;28;20037;-72
2022/07/08 04:03:48;;;;;;;11.48;2.03;;;13.70;99.90;;;;;;5037092;28;20055;-72
2022/07/08 04:06:13;;;;;;;14.02;2.08;;;13.80;99.90;;;;;;5053774;28;20120;-71
2022/07/08 04:08:39;;;;;;;10.00;2.25;;;13.70;99.90;;;;;;5053909;28;20068;-72
2022/07/08 04:11:05;;;;;;;8.98;1.83;;;13.80;99.90;;;;;;5053303;28;20067;-71
2022/07/08 04:13:30;;;;;;;8.77;2.10;;;13.80;99.90;;;;;;5054785;28;20040;-71
2022/07/08 04:15:57;;;;;;;11.18;2.10;;;13.70;99.90;;;;;;5053792;28;20147;-72
2022/07/08 04:18:23;;;;;;;8.30;1.77;;;13.90;99.90;;;;;;5053700;28;20033;-72
2022/07/08 04:20:48;;;;;;;8.90;2.17;;;13.70;99.90;;;;;;5053598;28;20418;-72
2022/07/08 04:23:14;;;;;;;7.15;1.73;;;13.80;99.90;;;;;;5054505;28;20040;-72
2022/07/08 04:25:40;;;;;;;8.45;1.95;;;14.00;99.90;;;;;;5053740;28;20056;-71
2022/07/08 04:28:05;;;;;;;14.88;2.78;;;13.90;99.90;;;;;;5054174;28;20429;-71
2022/07/08 04:30:31;;;;;;;13.10;2.10;;;14.10;99.90;;;;;;5053319;28;20049;-72
2022/07/08 04:32:57;;;;;;;15.70;2.22;;;;;;;;;;5054227;28;20029;-73
2022/07/08 04:35:22;;;;;;;8.68;2.20;;;14.30;99.90;;;;;;5053072;28;20033;-71
2022/07/08 04:37:48;;;;;;;8.32;2.40;;;14.10;99.90;;;;;;5053250;28;20464;-72
2022/07/08 04:40:15;;;;;;;4.80;2.05;;;14.10;99.90;;;;;;5053828;28;20033;-71
2022/07/08 04:42:41;;;;;;;12.35;1.90;;;14.00;99.90;;;;;;5052926;28;20051;-71
2022/07/08 04:45:07;;;;;;;7.22;1.95;;;14.30;99.90;;;;;;5053883;28;20037;-71
2022/07/08 04:47:33;;;;;;;7.40;2.35;;;14.20;99.90;;;;;;5036145;28;20051;-72
2022/07/08 04:49:59;;;;;;;6.82;1.80;;;14.40;99.90;;;;;;5053728;28;20045;-72
2022/07/08 04:52:25;;;;;;;11.82;2.38;;;14.40;99.90;;;;;;5052604;28;20033;-71
2022/07/08 04:54:50;;;;;;;8.30;2.00;;;14.50;99.90;;;;;;5053931;28;20114;-72
2022/07/08 04:57:16;;;;;;;10.48;2.13;;;14.50;99.90;;;;;;5052516;28;20068;-73
2022/07/08 04:59:42;;;;;;;13.45;2.38;;;14.60;99.90;;;;;;5052067;28;20124;-71
2022/07/08 05:02:07;;;;;;;13.20;2.05;;;14.70;99.90;;;;;;5053845;28;20037;-72
2022/07/08 05:04:33;;;;;;;14.30;2.50;;;15.00;99.90;;;;;;5052542;28;20079;-72
2022/07/08 05:06:58;;;;;;;12.57;2.35;;;15.00;99.90;;;;;;5035833;28;20124;-74
2022/07/08 05:09:24;;;;;;;19.05;2.30;;;15.10;99.90;;;;;;5035753;28;20033;-71
2022/07/08 05:11:50;;;;;;;11.45;2.38;;;15.30;99.90;;;;;;5052385;28;20044;-72
2022/07/08 05:14:16;;;;;;;12.35;3.13;;;15.10;99.90;;;;;;5052569;28;20044;-71
2022/07/08 05:16:42;;;;;;;10.63;2.17;;;15.30;99.90;;;;;;5052496;28;20048;-72
2022/07/08 05:19:09;;;;;;;12.13;3.05;;;15.20;99.90;;;;;;5051880;28;20045;-72
2022/07/08 05:21:37;;;;;;;7.95;2.00;;;15.30;99.90;;;;;;5051868;28;20483;-72
2022/07/08 05:24:07;;;;;;;8.40;2.00;;;15.30;99.90;;;;;;5052084;28;20067;-72
2022/07/08 05:26:33;;;;;;;12.23;2.28;;;15.60;99.90;;;;;;5035469;28;20037;-72
2022/07/08 05:28:59;;;;;;;11.00;2.05;;;15.60;99.90;;;;;;5035490;28;20457;-72
2022/07/08 05:31:25;;;;;;;12.85;2.58;;;15.40;99.90;;;;;;5052781;28;20032;-72
2022/07/08 05:33:50;;;;;;;8.48;2.40;;;15.60;99.90;;;;;;5034636;28;20084;-72
2022/07/08 05:36:16;;;;;;;10.93;2.97;;;15.70;99.90;;;;;;5051897;28;20075;-72
2022/07/08 05:38:41;;;;;;;9.57;2.15;;;15.60;99.90;;;;;;5035228;28;20045;-71
2022/07/08 05:41:07;;;;;;;12.40;2.20;;;15.90;99.90;;;;;;5051391;28;20044;-72
2022/07/08 05:43:32;;;;;;;20.15;2.55;;;15.90;99.90;;;;;;5035153;28;20033;-72
2022/07/08 05:45:58;;;;;;;11.35;3.03;;;15.70;99.90;;;;;;5053041;28;20461;-72
2022/07/08 05:48:24;;;;;;;8.52;1.83;;;15.90;99.90;;;;;;5052036;28;20052;-72
2022/07/08 05:50:50;;;;;;;12.90;2.25;;;15.60;99.90;;;;;;5034799;28;20044;-72
2022/07/08 05:53:16;;;;;;;11.77;2.40;;;15.90;99.90;;;;;;5051805;28;20032;-72
2022/07/08 05:55:43;;;;;;;9.68;2.42;;;15.90;99.90;;;;;;5051935;28;20044;-72
2022/07/08 05:58:09;;;;;;;9.88;2.08;;;16.00;99.90;;;;;;5051366;28;20047;-71
2022/07/08 06:00:34;;;;;;;14.48;3.40;;;16.10;99.90;;;;;;5050812;28;20048;-72
2022/07/08 06:03:00;;;;;;;10.07;2.35;;;16.20;99.90;;;;;;5051731;28;20075;-73
2022/07/08 06:05:26;;;;;;;9.32;2.08;;;17.60;99.90;;;;;;5034515;28;20131;-72
2022/07/08 06:07:52;;;;;;;11.25;2.65;;;16.20;99.90;;;;;;5051371;28;20072;-72
2022/07/08 06:10:17;;;;;;;11.00;2.70;;;16.40;99.90;;;;;;5051034;28;20033;-72
2022/07/08 06:12:43;;;;;;;18.42;2.65;;;16.40;99.90;;;;;;5052511;28;20041;-72
2022/07/08 06:15:13;;;;;;;6.68;2.00;;;16.40;99.90;;;;;;5034857;28;20136;-72
2022/07/08 06:17:39;;;;;;;6.38;1.90;;;16.70;99.90;;;;;;5052417;28;20076;-72
2022/07/08 06:20:05;;;;;;;10.45;2.15;;;16.70;99.90;;;;;;5050518;28;20065;-72
2022/07/08 06:22:31;;;;;;;13.93;2.20;;;16.70;99.90;;;;;;5115058;22;20047;-69
2022/07/08 06:24:57;;;;;;;14.35;2.40;;;16.80;99.90;;;;;;5112312;28;20398;-70
2022/07/08 06:27:22;;;;;;;9.20;2.72;;;17.00;99.90;;;;;;5111093;28;20035;-69
2022/07/08 06:29:48;;;;;;;10.65;2.40;;;17.00;99.90;;;;;;5110794;28;20031;-69
2022/07/08 06:32:14;;;;;;;9.38;2.20;;;17.10;99.90;;;;;;5110756;28;20040;-69
2022/07/08 06:34:40;;;;;;;9.25;2.55;;;17.50;99.90;;;;;;5110595;28;20054;-69
2022/07/08 06:37:05;;;;;;;10.32;2.22;;;17.70;99.90;;;;;;5096756;28;20035;-71
2022/07/08 06:39:31;;;;;;;10.05;1.98;;;18.20;99.90;;;;;;5100152;28;20048;-69
2022/07/08 06:41:56;;;;;;;7.20;1.70;;;18.20;99.90;;;;;;5105861;28;20047;-69
2022/07/08 06:44:22;;;;;;;10.27;2.60;;;18.20;99.90;;;;;;5102898;28;20049;-69
2022/07/08 06:46:48;;;;;;;9.50;2.28;;;18.00;99.90;;;;;;5106090;28;20447;-70
2022/07/08 06:49:13;;;;;;;20.25;3.42;;;18.10;99.90;;;;;;5108132;28;20432;-69
2022/07/08 06:51:39;;;;;;;14.68;2.00;;;18.20;99.90;;;;;;5104275;28;20036;-69
2022/07/08 06:56:48;;;;;;;18.80;2.88;;;18.40;99.90;;;;;;5099512;28;20054;-69
2022/07/08 06:59:14;;;;;;;11.50;2.15;;;18.20;99.90;;;;;;5100410;28;20040;-69
2022/07/08 07:01:39;;;;;;;10.73;2.58;;;18.40;99.90;;;;;;5103437;28;20050;-68
2022/07/08 07:04:05;;;;;;;6.93;2.72;;;18.60;99.90;;;;;;5103420;28;20042;-71
2022/07/08 07:06:31;;;;;;;10.93;2.35;;;18.50;99.90;;;;;;5107096;28;20041;-69
2022/07/08 07:08:56;;;;;;;12.98;2.33;;;18.40;99.90;;;;;;5099593;28;20036;-69
2022/07/08 07:11:22;;;;;;;10.38;2.05;;;18.50;99.90;;;;;;5106684;28;20035;-69
2022/07/08 07:13:47;;;;;;;6.22;2.00;;;18.80;99.90;;;;;;5099339;28;20520;-68
2022/07/08 07:16:14;;;;;;;12.07;2.53;;;19.50;99.90;;;;;;5083733;28;20036;-69
2022/07/08 07:18:40;;;;;;;5.60;2.10;;;18.70;99.90;;;;;;5103126;28;20042;-69
2022/07/08 07:21:05;;;;;;;10.63;2.38;;;19.50;99.90;;;;;;5100847;28;20071;-69
2022/07/08 07:23:31;;;;;;;8.30;2.30;;;18.60;99.90;;;;;;5107043;28;20071;-68
2022/07/08 07:25:57;;;;;;;11.35;2.33;;;18.50;99.90;;;;;;5099603;28;20055;-69
2022/07/08 07:28:23;;;;;;;10.57;1.98;;;18.60;99.90;;;;;;5106481;28;20046;-70
2022/07/08 07:30:49;;;;;;;15.48;3.38;;;19.50;99.90;;;;;;5103809;28;20554;-69
2022/07/08 07:33:14;;;;;;;12.52;2.03;;;18.70;99.90;;;;;;5102769;28;20084;-69
2022/07/08 07:35:40;;;;;;;15.13;2.60;;;18.40;99.90;;;;;;5100081;28;20044;-69
2022/07/08 07:38:06;;;;;;;6.50;1.55;;;18.40;99.90;;;;;;5097773;28;20032;-69
2022/07/08 07:40:31;;;;;;;9.10;1.88;;;18.50;99.90;;;;;;5096276;28;20043;-68
2022/07/08 07:42:57;;;;;;;9.32;2.20;;;19.00;99.90;;;;;;5075659;28;20040;-68
2022/07/08 07:45:22;;;;;;;12.63;2.25;;;18.50;99.90;;;;;;5104386;28;20039;-69
2022/07/08 07:47:48;;;;;;;19.33;2.50;;;18.40;99.90;;;;;;5098848;28;20036;-69
2022/07/08 07:50:14;;;;;;;9.85;2.13;;;18.50;99.90;;;;;;5095945;28;20032;-69
2022/07/08 07:52:39;;;;;;;9.35;2.13;;;18.70;99.90;;;;;;5101566;28;20400;-69
2022/07/08 07:55:09;;;;;;;12.43;1.80;;;18.80;99.90;;;;;;5095922;28;20040;-69
2022/07/08 07:57:36;;;;;;;10.40;2.47;;;18.40;99.90;;;;;;5104484;28;20355;-70
2022/07/08 08:00:06;;;;;;;6.45;1.80;;;18.60;99.90;;;;;;5099418;28;20209;-69
2022/07/08 08:02:32;;;;;;;20.00;2.10;;;18.60;99.90;;;;;;5102771;28;20529;-67
2022/07/08 08:04:57;;;;;;;21.70;3.88;;;18.80;99.90;;;;;;5099528;28;20075;-69
2022/07/08 08:07:23;;;;;;;13.88;2.53;;;19.90;99.90;;;;;;5102349;28;20035;-69
2022/07/08 08:09:48;;;;;;;6.30;1.80;;;19.00;99.90;;;;;;5096994;28;20123;-69
2022/07/08 08:12:14;;;;;;;7.53;2.03;;;18.90;99.90;;;;;;5100386;28;20032;-69
2022/07/08 08:14:39;;;;;;;7.57;1.70;;;18.80;99.90;;;;;;5103247;28;20085;-70
2022/07/08 08:17:05;;;;;;;7.28;1.83;;;18.90;99.90;;;;;;5100494;28;20035;-69
2022/07/08 08:19:31;;;;;;;9.07;1.95;;;18.80;99.90;;;;;;5102557;28;20048;-69
2022/07/08 08:21:57;;;;;;;8.90;2.42;;;18.80;99.90;;;;;;5093772;28;20043;-69
2022/07/08 08:24:22;;;;;;;10.57;1.90;;;19.70;99.90;;;;;;5101135;28;20054;-69
2022/07/08 08:26:48;;;;;;;6.63;2.53;;;18.80;99.90;;;;;;5094501;28;20435;-69
2022/07/08 08:29:13;;;;;;;10.68;2.33;;;18.90;99.90;;;;;;5099119;28;20501;-68
2022/07/08 08:31:39;;;;;;;11.85;1.98;;;19.00;99.90;;;;;;5103505;28;20527;-69
2022/07/08 08:34:05;;;;;;;20.17;3.80;;;19.10;99.90;;;;;;5108754;28;20493;-69
2022/07/08 08:36:31;;;;;;;6.97;2.00;;;19.00;99.90;;;;;;5104615;28;20039;-67
2022/07/08 08:38:56;;;;;;;14.75;2.03;;;19.20;99.90;;;;;;5096979;28;20035;-68
2022/07/08 08:41:23;;;;;;;6.25;1.90;;;19.20;99.90;;;;;;5099979;28;20036;-69
2022/07/08 08:43:49;;;;;;;4.68;2.00;;;19.20;99.90;;;;;;5096803;28;20047;-69
2022/07/08 08:46:22;;;;;;;10.63;2.50;;;19.20;99.90;;;;;;5098288;28;20051;-67
2022/07/08 08:48:48;;;;;;;6.38;1.80;;;19.40;99.90;;;;;;5107442;28;20232;-70
2022/07/08 08:51:20;;;;;;;7.32;2.08;;;19.50;99.90;;;;;;5099990;28;20031;-70
2022/07/08 08:53:47;;;;;;;8.43;2.33;;;19.50;99.90;;;;;;5103486;28;20087;-66
2022/07/08 08:56:15;;;;;;;7.82;2.20;;;19.50;99.90;;;;;;5106343;28;20397;-68
2022/07/08 08:58:46;;;;;;;11.50;2.20;;;19.80;99.90;;;;;;5109490;28;20504;-69
2022/07/08 09:01:13;;;;;;;5.88;1.70;;;20.80;99.90;;;;;;5104902;28;20093;-69
2022/07/08 09:03:39;;;;;;;7.43;2.08;;;19.70;99.90;;;;;;5107473;28;20043;-69
2022/07/08 09:06:05;;;;;;;4.30;1.55;;;20.00;99.90;;;;;;5105387;28;20072;-69
2022/07/08 09:08:31;;;;;;;10.75;2.13;;;19.90;99.90;;;;;;5106875;28;20047;-69
2022/07/08 09:10:57;;;;;;;8.23;1.70;;;19.90;99.90;;;;;;5104501;28;20047;-67
2022/07/08 09:13:24;;;;;;;10.63;1.73;;;20.00;99.90;;;;;;5098859;28;20394;-68
2022/07/08 09:15:54;;;;;;;5.57;1.48;;;20.10;99.90;;;;;;5091250;28;20112;-69
2022/07/08 09:18:25;;;;;;;9.25;1.88;;;20.20;99.90;;;;;;5093145;28;20076;-69
2022/07/08 09:20:53;;;;;;;6.65;1.88;;;20.70;99.90;;;;;;5091420;28;20115;-69
2022/07/08 09:23:19;;;;;;;5.35;1.70;;;20.10;99.90;;;;;;5092935;28;20448;-69
2022/07/08 09:25:50;;;;;;;6.25;1.58;;;20.10;99.90;;;;;;5113034;28;20071;-69
2022/07/08 09:28:30;;;;;;;10.98;2.83;;;20.10;99.90;;;;;;5113595;28;20567;-69
2022/07/08 09:30:56;;;;;;;6.45;1.88;;;21.70;99.90;;;;;;5111712;28;20067;-69
2022/07/08 09:33:25;;;;;;;7.57;1.63;;;20.60;99.90;;;;;;5111998;28;20075;-69
2022/07/08 09:35:50;;;;;;;7.20;1.98;;;21.40;99.90;;;;;;5113413;27;20115;-69
2022/07/08 09:38:18;;;;;;;4.88;1.58;;;20.50;99.90;;;;;;5111940;28;20043;-69
2022/07/08 09:41:17;;;;;;;7.88;1.73;;;21.60;99.90;;;;;;5113433;28;20039;-69
2022/07/08 09:43:44;;;;;;;6.18;1.63;;;21.80;99.90;;;;;;5051049;28;20044;-68
2022/07/08 09:46:10;;;;;;;6.82;1.80;;;20.60;99.90;;;;;;5113022;28;20564;-69
2022/07/08 09:48:35;;;;;;;6.38;1.73;;;20.60;99.90;;;;;;5111686;28;20115;-69
2022/07/08 09:51:08;;;;;;;7.63;2.00;;;22.50;99.90;;;;;;5112433;28;20447;-69
2022/07/08 09:53:38;;;;;;;6.55;1.50;;;20.50;99.90;;;;;;5111808;28;20031;-69
2022/07/08 09:56:04;;;;;;;7.43;1.83;;;20.80;99.90;;;;;;5112888;28;20519;-69
2022/07/08 09:58:32;;;;;;;5.38;1.88;;;21.00;99.90;;;;;;5113029;28;20042;-69
2022/07/08 10:01:00;;;;;;;7.00;1.48;;;22.00;99.90;;;;;;5113008;28;20463;-69
2022/07/08 10:03:27;;;;;;;6.78;1.60;;;20.90;99.90;;;;;;5113018;28;20092;-69
2022/07/08 10:05:54;;;;;;;6.15;1.92;;;21.90;99.90;;;;;;5111512;28;20082;-69
2022/07/08 10:08:20;;;;;;;6.95;1.52;;;21.00;99.90;;;;;;5112827;28;20135;-69
2022/07/08 10:10:48;;;;;;;4.68;1.17;;;22.00;99.90;;;;;;5093799;28;20108;-68
2022/07/08 10:13:15;;;;;;;6.13;2.00;;;22.10;99.90;;;;;;5105439;28;20489;-69
2022/07/08 10:15:43;;;;;;;5.97;1.58;;;20.90;99.90;;;;;;5100676;28;20063;-69
2022/07/08 10:18:17;;;;;;;6.82;1.60;;;22.20;99.90;;;;;;5100978;28;20044;-69
2022/07/08 10:20:53;;;;;;;7.32;1.65;;;22.20;99.90;;;;;;5110683;28;20058;-68
2022/07/08 10:23:24;;;;;;;4.05;1.65;;;21.30;99.90;;;;;;5111453;28;20065;-69
2022/07/08 10:25:51;;;;;;;6.07;1.70;;;21.40;99.90;;;;;;5090552;28;20119;-68
2022/07/08 10:28:16;;;;;;;9.13;1.70;;;21.30;99.90;;;;;;5090220;28;20143;-69
2022/07/08 10:30:51;;;;;;;6.43;1.80;;;21.30;99.90;;;;;;5090511;28;20534;-70
2022/07/08 10:33:25;;;;;;;7.90;1.90;;;21.70;99.90;;;;;;5090862;28;20359;-69
2022/07/08 10:36:10;;;;;;;10.30;1.70;;;21.50;99.90;;;;;;5090791;28;20044;-69
2022/07/08 10:38:38;;;;;;;7.82;1.77;;;21.60;99.90;;;;;;5089998;28;20105;-69
2022/07/08 10:41:10;;;;;;;7.85;2.00;;;23.30;99.90;;;;;;5090265;28;20051;-69
2022/07/08 10:43:37;;;;;;;10.18;1.77;;;21.50;99.90;;;;;;5090435;28;20093;-69
2022/07/08 10:46:12;;;;;;;7.65;1.60;;;23.30;99.90;;;;;;5089758;28;20451;-68
2022/07/08 10:48:40;;;;;;;7.68;1.65;;;21.60;99.90;;;;;;5104300;28;20663;-70
2022/07/08 10:51:26;;;;;;;6.55;2.17;;;21.60;99.90;;;;;;5105938;28;20516;-67
2022/07/08 10:54:00;;;;;;;7.50;2.00;;;21.30;99.90;;;;;;5106318;28;20040;-69
2022/07/08 10:56:58;;;;;;;10.38;2.17;;;21.20;99.90;;;;;;5106844;28;20043;-69
2022/07/08 10:59:27;;;;;;;9.85;2.10;;;21.20;99.90;;;;;;5101822;28;20382;-68
2022/07/08 11:02:02;;;;;;;7.60;1.90;;;21.30;99.90;;;;;;5089809;28;20039;-69
2022/07/08 11:04:33;;;;;;;5.05;1.83;;;20.60;99.90;;;;;;5107025;28;20054;-69
2022/07/08 11:07:17;;;;;;;5.95;1.77;;;22.70;99.90;;;;;;5103536;28;20036;-69
2022/07/08 11:09:51;;;;;;;11.52;3.30;;;21.90;99.90;;;;;;5104367;28;20047;-69
2022/07/08 11:12:21;;;;;;;5.68;2.55;;;21.10;99.90;;;;;;5101461;28;20491;-69
2022/07/08 11:14:49;;;;;;;14.27;2.95;;;21.20;99.90;;;;;;5102721;28;20043;-69
2022/07/08 11:17:23;;;;;;;7.35;3.15;;;21.10;99.90;;;;;;5107025;28;20425;-67
2022/07/08 11:19:51;;;;;;;10.65;2.72;;;21.10;99.90;;;;;;5100584;28;20040;-69
2022/07/08 11:22:17;;;;;;;11.85;3.08;;;22.30;99.90;;;;;;5106984;28;20048;-69
2022/07/08 11:24:44;;;;;;;15.57;2.70;;;21.60;99.90;;;;;;5094741;28;20138;-68
2022/07/08 11:27:10;;;;;;;17.65;3.15;;;21.80;99.90;;;;;;5106826;28;20396;-71
2022/07/08 11:29:36;;;;;;;12.05;3.33;;;21.50;99.90;;;;;;5106112;28;20036;-69
2022/07/08 11:32:04;;;;;;;7.68;2.60;;;21.30;99.90;;;;;;5105207;28;20089;-68
2022/07/08 11:34:30;;;;;;;9.40;2.28;;;21.20;99.90;;;;;;5112169;28;20051;-68
2022/07/08 11:37:00;;;;;;;12.05;2.90;;;22.70;99.90;;;;;;5105111;28;20036;-69
2022/07/08 11:39:26;;;;;;;17.02;3.10;;;22.00;99.90;;;;;;5093479;28;20039;-68
2022/07/08 11:41:53;;;;;;;8.68;2.75;;;21.90;99.90;;;;;;5104086;28;20058;-69
2022/07/08 11:44:21;;;;;;;12.10;2.80;;;23.00;99.90;;;;;;5111175;28;20648;-69
2022/07/08 11:46:51;;;;;;;9.07;2.72;;;21.90;99.90;;;;;;5110037;28;20519;-69
2022/07/08 11:49:21;;;;;;;21.83;4.68;;;21.50;99.90;;;;;;5090445;28;20035;-69
2022/07/08 11:51:52;;;;;;;10.43;3.45;;;22.80;99.90;;;;;;5108619;28;20043;-67
2022/07/08 11:54:21;;;;;;;9.70;3.40;;;21.80;99.90;;;;;;5105783;28;20043;-69
2022/07/08 11:56:47;;;;;;;13.13;3.92;;;22.20;99.90;;;;;;5108478;28;20096;-68
2022/07/08 11:59:20;;;;;;;13.73;3.92;;;22.50;99.90;;;;;;5105305;28;20036;-69
2022/07/08 12:01:45;;;;;;;16.50;4.25;;;22.20;99.90;;;;;;5102602;28;20043;-69
2022/07/08 12:04:11;;;;;;;10.65;2.92;;;21.90;99.90;;;;;;5112181;28;20032;-72
2022/07/08 12:06:48;;;;;;;10.98;2.80;;;22.00;99.90;;;;;;5113559;28;20113;-68
2022/07/08 12:09:15;;;;;;;12.18;2.42;;;22.30;99.90;;;;;;5113366;28;20040;-68
2022/07/08 12:11:43;;;;;;;10.52;3.28;;;22.90;99.90;;;;;;5113288;28;20504;-71
2022/07/08 12:14:09;;;;;;;11.10;3.03;;;22.90;99.90;;;;;;5113346;28;20393;-68
2022/07/08 12:16:44;;;;;;;16.08;3.25;;;23.20;99.90;;;;;;5113623;28;20105;-69
2022/07/08 12:19:30;;;;;;;16.52;2.88;;;23.50;99.90;;;;;;5113238;28;20393;-69
2022/07/08 12:22:06;;;;;;;12.77;3.10;;;23.50;99.90;;;;;;5099469;28;20032;-70
2022/07/08 12:24:34;;;;;;;10.13;2.83;;;23.10;99.90;;;;;;5088177;28;20036;-69
2022/07/08 12:27:16;;;;;;;15.65;3.22;;;22.80;99.90;;;;;;5091590;28;20038;-73
2022/07/08 12:29:41;;;;;;;11.85;2.97;;;23.10;99.90;;;;;;5096418;28;20043;-68
2022/07/08 12:32:09;;;;;;;9.30;2.72;;;23.70;99.90;;;;;;5086915;28;20432;-69
2022/07/08 12:34:34;;;;;;;12.27;3.05;;;23.40;99.90;;;;;;5123247;22;20096;-71
2022/07/08 12:37:14;;;;;;;10.73;2.40;;;25.60;99.90;;;;;;5048356;28;20048;-70
2022/07/08 12:39:40;;;;;;;8.75;2.50;;;23.60;99.90;;;;;;5052067;28;20406;-70
2022/07/08 12:42:06;;;;;;;13.07;2.50;;;23.10;99.90;;;;;;5073407;28;20036;-71
2022/07/08 12:44:47;;;;;;;13.48;3.10;;;23.20;99.90;;;;;;5071704;28;20090;-69
2022/07/08 12:47:13;;;;;;;10.07;3.42;;;23.00;99.90;;;;;;5070259;28;20052;-69
2022/07/08 12:49:41;;;;;;;10.20;2.67;;;23.40;99.90;;;;;;5073151;28;20037;-69